Time;durP1;ratioP1;P1;durP2;ratioP2;P2;SDS_P1;SDS_P2;PMS_P1;PMS_P2;Temp;Humidity;BMP_temperature;BMP_pressure;BME280_temperature;BME280_humidity;BME280_pressure;Samples;Min_cycle;Max_cycle;Signal;HPM_P1;HPM_P2
2022/11/30 06:00:17;;;;;;;15.60;13.90;;;9.30;97.20;;;;;;1681281;29;20847;-72
2022/11/30 06:01:15;;;;;;;15.65;13.90;;;9.30;97.20;;;;;;1681328;29;20214;-72
2022/11/30 06:02:07;;;;;;;16.45;14.05;;;9.30;97.20;;;;;;1681400;29;20597;-73
2022/11/30 06:02:58;;;;;;;15.73;14.07;;;9.30;97.20;;;;;;1681348;29;20220;-72
2022/11/30 06:03:50;;;;;;;18.70;13.63;;;9.30;97.20;;;;;;1679392;29;20205;-73
2022/11/30 06:04:41;;;;;;;17.35;14.57;;;9.30;97.20;;;;;;1680854;29;20450;-73
2022/11/30 06:05:35;;;;;;;15.87;14.20;;;9.30;97.20;;;;;;1681407;29;20215;-73
2022/11/30 06:06:26;;;;;;;16.40;14.02;;;9.30;97.20;;;;;;1681348;29;20209;-73
2022/11/30 06:07:17;;;;;;;16.23;14.53;;;9.30;97.20;;;;;;1681117;29;20221;-72
2022/11/30 06:08:08;;;;;;;14.48;12.98;;;9.30;97.20;;;;;;1681164;29;20205;-72
2022/11/30 06:09:00;;;;;;;14.67;13.13;;;9.30;97.20;;;;;;1680709;29;20201;-72
2022/11/30 06:09:51;;;;;;;15.65;14.05;;;9.30;97.20;;;;;;1681140;29;20233;-73
2022/11/30 06:10:42;;;;;;;16.80;15.13;;;9.30;97.20;;;;;;1681131;29;20227;-73
2022/11/30 06:11:33;;;;;;;16.20;14.48;;;9.20;97.20;;;;;;1681362;29;20213;-73
2022/11/30 06:12:25;;;;;;;15.43;13.50;;;9.30;97.20;;;;;;1681190;29;20209;-73
2022/11/30 06:13:16;;;;;;;16.42;14.73;;;9.30;97.20;;;;;;1681306;29;20688;-72
2022/11/30 06:14:07;;;;;;;16.90;13.80;;;9.20;97.20;;;;;;1681234;29;20317;-72
2022/11/30 06:14:58;;;;;;;16.40;13.50;;;9.30;97.20;;;;;;1681165;29;20678;-72
2022/11/30 06:15:51;;;;;;;18.13;15.17;;;9.30;97.20;;;;;;1681278;29;20205;-72
2022/11/30 06:16:42;;;;;;;15.00;13.45;;;9.30;97.20;;;;;;1680954;29;20577;-72
2022/11/30 06:17:34;;;;;;;14.93;13.43;;;9.30;97.20;;;;;;1681349;29;20744;-72
2022/11/30 06:18:24;;;;;;;15.85;14.25;;;9.30;97.20;;;;;;1680663;29;20687;-72
2022/11/30 06:19:16;;;;;;;16.53;14.83;;;9.30;97.20;;;;;;1681224;29;20714;-72
2022/11/30 06:20:08;;;;;;;17.55;15.77;;;9.30;97.20;;;;;;1680693;29;20201;-71
2022/11/30 06:21:00;;;;;;;16.20;14.50;;;9.30;97.20;;;;;;1680687;29;20221;-72
2022/11/30 06:21:51;;;;;;;16.50;14.80;;;9.30;97.20;;;;;;1680840;29;20209;-71
2022/11/30 06:22:46;;;;;;;16.50;14.77;;;9.30;97.20;;;;;;1681184;29;20205;-71
2022/11/30 06:23:37;;;;;;;15.95;14.25;;;9.30;97.20;;;;;;1681228;29;20209;-72
2022/11/30 06:24:29;;;;;;;17.77;15.87;;;9.30;97.20;;;;;;1681244;29;20253;-71
2022/11/30 06:25:20;;;;;;;16.42;14.57;;;9.30;97.20;;;;;;1681228;29;20815;-71
2022/11/30 06:26:12;;;;;;;16.98;15.18;;;9.30;97.20;;;;;;1681235;29;20571;-71
2022/11/30 06:27:03;;;;;;;16.20;14.48;;;9.30;97.20;;;;;;1680930;29;20217;-72
2022/11/30 06:27:55;;;;;;;19.73;15.30;;;9.30;97.20;;;;;;1681228;29;20219;-71
2022/11/30 06:28:45;;;;;;;16.58;14.88;;;9.30;97.20;;;;;;1680684;29;20209;-71
2022/11/30 06:29:37;;;;;;;16.00;14.40;;;9.30;97.20;;;;;;1680997;29;20217;-72
2022/11/30 06:30:28;;;;;;;16.98;15.23;;;9.30;97.20;;;;;;1679861;29;20237;-72
2022/11/30 06:31:21;;;;;;;17.33;15.43;;;9.30;97.20;;;;;;1674566;29;20648;-71
2022/11/30 06:32:11;;;;;;;17.02;14.43;;;9.30;97.20;;;;;;1674701;29;20613;-72
2022/11/30 06:33:03;;;;;;;17.43;15.33;;;9.30;97.20;;;;;;1674363;29;20623;-72
2022/11/30 06:33:55;;;;;;;17.20;15.38;;;9.30;97.20;;;;;;1674767;29;20210;-72
2022/11/30 06:34:47;;;;;;;16.27;14.57;;;9.30;97.20;;;;;;1678454;29;20201;-72
2022/11/30 06:35:43;;;;;;;17.80;14.40;;;9.30;97.20;;;;;;1680806;29;20240;-72
2022/11/30 06:36:35;;;;;;;17.85;15.95;;;9.30;97.20;;;;;;1681005;29;20237;-72
2022/11/30 06:37:26;;;;;;;16.88;15.02;;;9.30;97.20;;;;;;1681066;29;20205;-72
2022/11/30 06:38:19;;;;;;;15.93;14.30;;;9.30;97.20;;;;;;1681091;29;20201;-72
2022/11/30 06:39:11;;;;;;;18.08;14.93;;;9.30;97.20;;;;;;1667982;29;20203;-71
2022/11/30 06:40:03;;;;;;;19.10;14.07;;;9.30;97.20;;;;;;1668262;29;20578;-72
2022/11/30 06:40:53;;;;;;;19.25;15.45;;;9.30;97.20;;;;;;1668344;29;20776;-72
2022/11/30 06:41:45;;;;;;;17.33;15.40;;;9.30;97.20;;;;;;1668278;29;20680;-73
2022/11/30 06:42:37;;;;;;;17.98;15.38;;;9.30;97.20;;;;;;1668398;29;20230;-72
2022/11/30 06:43:33;;;;;;;18.27;14.80;;;9.30;97.20;;;;;;1668377;29;20225;-72
2022/11/30 06:44:23;;;;;;;17.45;14.80;;;9.30;97.20;;;;;;1668426;29;20214;-72
2022/11/30 06:45:15;;;;;;;20.13;16.80;;;9.30;97.20;;;;;;1668313;29;20224;-72
2022/11/30 06:46:07;;;;;;;17.58;15.23;;;9.30;97.20;;;;;;1668365;29;20245;-71
2022/11/30 06:47:00;;;;;;;16.25;14.55;;;9.30;97.20;;;;;;1668168;29;20839;-74
2022/11/30 06:47:53;;;;;;;17.40;15.52;;;9.30;97.20;;;;;;1668484;29;20218;-72
2022/11/30 06:48:49;;;;;;;17.88;15.82;;;9.30;97.20;;;;;;1667873;29;20555;-72
2022/11/30 06:49:40;;;;;;;17.13;15.23;;;9.30;97.20;;;;;;1668318;29;20214;-72
2022/11/30 06:50:32;;;;;;;17.00;15.27;;;9.30;97.20;;;;;;1668599;29;20231;-73
2022/11/30 06:51:23;;;;;;;17.52;15.02;;;9.30;97.20;;;;;;1680966;29;20213;-73
2022/11/30 06:52:15;;;;;;;17.07;15.23;;;9.30;97.20;;;;;;1681163;29;20205;-74
2022/11/30 06:53:06;;;;;;;17.30;15.45;;;9.30;97.20;;;;;;1680985;29;20201;-72
2022/11/30 06:53:57;;;;;;;16.43;14.63;;;9.30;97.20;;;;;;1681098;29;20213;-72
2022/11/30 06:54:48;;;;;;;17.67;15.07;;;9.30;97.20;;;;;;1681132;29;20560;-73
2022/11/30 06:55:41;;;;;;;17.97;15.30;;;9.30;97.20;;;;;;1680951;29;20602;-72
2022/11/30 06:56:32;;;;;;;19.33;16.35;;;9.30;97.20;;;;;;1681078;29;20561;-72
2022/11/30 06:57:27;;;;;;;17.80;15.20;;;9.30;97.20;;;;;;1680861;29;20219;-72
2022/11/30 06:58:18;;;;;;;18.02;15.10;;;9.30;97.20;;;;;;1680406;29;20441;-73
2022/11/30 06:59:10;;;;;;;17.43;15.53;;;9.30;97.20;;;;;;1680539;29;20261;-72
2022/11/30 07:00:01;;;;;;;19.83;16.00;;;9.30;97.20;;;;;;1680883;29;20212;-72
2022/11/30 07:00:54;;;;;;;17.85;15.27;;;9.30;97.20;;;;;;1675143;29;20223;-72
2022/11/30 07:01:44;;;;;;;22.23;16.45;;;9.30;97.20;;;;;;1674674;29;20801;-72
2022/11/30 07:02:38;;;;;;;22.00;15.77;;;9.30;97.20;;;;;;1674669;29;20692;-72
2022/11/30 07:03:28;;;;;;;18.70;14.70;;;9.30;97.20;;;;;;1674641;29;20496;-72
2022/11/30 07:04:20;;;;;;;18.63;16.13;;;9.30;97.20;;;;;;1674583;29;20202;-72
2022/11/30 07:05:11;;;;;;;20.95;16.27;;;9.30;97.20;;;;;;1674714;29;20598;-72
2022/11/30 07:06:07;;;;;;;18.77;15.88;;;9.30;97.20;;;;;;1674520;29;20224;-72
2022/11/30 07:06:57;;;;;;;22.50;16.48;;;9.30;97.20;;;;;;1674378;29;20217;-72
2022/11/30 07:07:49;;;;;;;16.60;14.90;;;9.30;97.20;;;;;;1674707;29;20680;-72
2022/11/30 07:08:41;;;;;;;17.45;15.27;;;9.30;97.20;;;;;;1674046;29;20256;-72
2022/11/30 07:09:33;;;;;;;16.38;14.68;;;9.30;97.20;;;;;;1674604;29;20213;-72
2022/11/30 07:10:23;;;;;;;17.50;15.63;;;9.30;97.20;;;;;;1674409;29;20264;-72
2022/11/30 07:11:15;;;;;;;16.87;15.07;;;9.30;97.20;;;;;;1674589;29;20205;-72
2022/11/30 07:12:07;;;;;;;16.13;14.52;;;9.30;97.20;;;;;;1674336;29;20210;-72
2022/11/30 07:12:59;;;;;;;17.30;15.38;;;9.30;97.20;;;;;;1674524;29;20210;-72
2022/11/30 07:13:50;;;;;;;18.63;15.65;;;9.30;97.20;;;;;;1674626;29;20210;-71
2022/11/30 07:14:41;;;;;;;21.13;15.57;;;9.30;97.20;;;;;;1674553;29;20209;-72
2022/11/30 07:15:32;;;;;;;18.85;15.60;;;9.30;97.20;;;;;;1674637;29;20233;-72
2022/11/30 07:16:24;;;;;;;20.47;16.47;;;9.30;97.20;;;;;;1674921;29;20206;-72
2022/11/30 07:17:15;;;;;;;16.33;14.57;;;9.30;97.20;;;;;;1675633;29;20207;-72
2022/11/30 07:18:08;;;;;;;21.30;16.40;;;9.30;97.20;;;;;;1675931;29;20206;-72
2022/11/30 07:18:58;;;;;;;18.38;16.10;;;9.30;97.20;;;;;;1675409;29;20626;-72
2022/11/30 07:19:50;;;;;;;19.17;16.20;;;9.30;97.20;;;;;;1675759;29;20603;-72
2022/11/30 07:20:41;;;;;;;21.80;16.33;;;9.30;97.20;;;;;;1675755;29;20230;-74
2022/11/30 07:21:33;;;;;;;20.63;15.90;;;9.30;97.20;;;;;;1675973;29;20219;-74
2022/11/30 07:22:23;;;;;;;22.27;17.42;;;9.30;97.20;;;;;;1675820;29;20454;-75
2022/11/30 07:26:48;;;;;;;20.88;17.15;;;9.30;97.20;;;;;;1663853;29;20408;-72
2022/11/30 07:27:39;;;;;;;19.17;16.35;;;9.30;97.20;;;;;;1669566;29;20221;-72
2022/11/30 07:28:31;;;;;;;19.40;15.30;;;9.30;97.20;;;;;;1669119;29;20207;-72
2022/11/30 07:29:21;;;;;;;20.67;16.02;;;9.30;97.20;;;;;;1669404;29;20202;-72
2022/11/30 07:30:14;;;;;;;20.03;16.17;;;9.30;97.20;;;;;;1669329;29;20207;-72
2022/11/30 07:31:16;;;;;;;20.27;16.15;;;9.30;97.20;;;;;;1669294;29;20225;-72
2022/11/30 07:32:08;;;;;;;19.05;17.02;;;9.40;97.20;;;;;;1667209;29;20211;-72
2022/11/30 07:32:59;;;;;;;18.02;15.75;;;9.30;97.20;;;;;;1663056;29;20203;-72
2022/11/30 07:33:53;;;;;;;19.40;15.80;;;9.30;97.20;;;;;;1663313;29;20211;-72
2022/11/30 07:34:43;;;;;;;19.48;16.98;;;9.30;97.20;;;;;;1663051;29;20608;-72
2022/11/30 07:35:35;;;;;;;19.70;17.43;;;9.30;97.20;;;;;;1663116;29;20360;-72
2022/11/30 07:36:29;;;;;;;17.90;16.00;;;9.30;97.20;;;;;;1663069;29;20452;-72
2022/11/30 07:37:19;;;;;;;22.15;16.90;;;9.30;97.20;;;;;;1662856;29;20243;-72
2022/11/30 07:38:11;;;;;;;19.67;17.57;;;9.40;97.20;;;;;;1663253;29;20241;-72
2022/11/30 07:39:03;;;;;;;19.70;17.38;;;9.40;97.20;;;;;;1662279;29;20203;-72
2022/11/30 07:39:54;;;;;;;19.02;16.70;;;9.40;97.20;;;;;;1663063;29;20222;-72
2022/11/30 07:40:46;;;;;;;19.13;16.88;;;9.40;97.20;;;;;;1663006;29;20227;-73
2022/11/30 07:41:37;;;;;;;19.23;17.02;;;9.30;97.20;;;;;;1663331;29;20215;-72
2022/11/30 07:42:29;;;;;;;19.93;17.30;;;9.30;97.20;;;;;;1669361;29;20202;-73
2022/11/30 07:43:20;;;;;;;19.63;17.58;;;9.30;97.20;;;;;;1669441;29;20297;-72
2022/11/30 07:44:12;;;;;;;20.83;17.80;;;9.30;97.20;;;;;;1669428;29;20653;-72
2022/11/30 07:45:04;;;;;;;20.63;17.73;;;9.30;97.20;;;;;;1669142;29;21098;-72
2022/11/30 07:45:55;;;;;;;20.40;17.65;;;9.30;97.20;;;;;;1669459;29;20213;-72
2022/11/30 07:46:46;;;;;;;17.97;16.07;;;9.30;97.20;;;;;;1669213;29;20212;-72
2022/11/30 07:47:37;;;;;;;18.92;16.63;;;9.30;97.20;;;;;;1669358;29;20214;-72
2022/11/30 07:48:29;;;;;;;20.33;17.37;;;9.30;97.20;;;;;;1668991;29;20210;-72
2022/11/30 07:49:21;;;;;;;19.02;17.00;;;9.30;97.20;;;;;;1669279;29;20237;-72
2022/11/30 07:50:12;;;;;;;20.50;17.13;;;9.30;97.20;;;;;;1669273;29;20218;-72
2022/11/30 07:51:05;;;;;;;20.98;18.00;;;9.30;97.20;;;;;;1669309;29;20670;-74
2022/11/30 07:51:57;;;;;;;21.92;18.95;;;9.30;97.20;;;;;;1669383;29;20910;-72
2022/11/30 07:52:47;;;;;;;23.60;17.63;;;9.30;97.20;;;;;;1669533;29;20210;-74
2022/11/30 07:53:39;;;;;;;20.53;17.57;;;9.30;97.20;;;;;;1669389;29;20665;-74
2022/11/30 07:54:31;;;;;;;22.15;17.98;;;9.30;97.20;;;;;;1669506;29;20846;-73
2022/11/30 07:55:22;;;;;;;22.42;18.73;;;9.30;97.20;;;;;;1669301;29;20214;-74
2022/11/30 07:56:16;;;;;;;24.60;18.98;;;9.30;97.20;;;;;;1669371;29;20234;-73
2022/11/30 07:57:07;;;;;;;21.90;19.13;;;9.30;97.20;;;;;;1669157;29;20207;-73
2022/11/30 07:57:58;;;;;;;21.10;18.43;;;9.30;97.20;;;;;;1669136;29;20207;-74
2022/11/30 07:58:51;;;;;;;19.73;17.30;;;9.30;97.20;;;;;;1668843;29;20226;-73
2022/11/30 07:59:42;;;;;;;22.45;19.20;;;9.30;97.20;;;;;;1669389;29;20210;-74
2022/11/30 08:00:34;;;;;;;21.10;18.70;;;9.30;97.20;;;;;;1669367;29;20226;-73
2022/11/30 08:01:26;;;;;;;22.38;18.83;;;9.30;97.20;;;;;;1669292;29;20720;-73
2022/11/30 08:02:18;;;;;;;23.40;19.75;;;9.30;97.20;;;;;;1669351;29;20689;-74
2022/11/30 08:03:08;;;;;;;22.40;18.67;;;9.30;97.20;;;;;;1669474;29;20210;-74
2022/11/30 08:04:00;;;;;;;22.40;18.70;;;9.30;97.20;;;;;;1669348;29;20210;-73
2022/11/30 08:04:54;;;;;;;22.20;17.98;;;9.30;97.20;;;;;;1669333;29;20237;-73
2022/11/30 08:05:45;;;;;;;20.20;18.00;;;9.30;97.20;;;;;;1669338;29;20210;-73
2022/11/30 08:06:37;;;;;;;22.90;20.40;;;9.30;97.20;;;;;;1669197;29;20221;-74
2022/11/30 08:07:28;;;;;;;22.58;18.63;;;9.30;97.20;;;;;;1669227;29;20594;-73
2022/11/30 08:08:19;;;;;;;22.97;20.37;;;9.30;97.20;;;;;;1669400;29;20581;-72
2022/11/30 08:09:11;;;;;;;24.13;18.88;;;9.30;97.20;;;;;;1668840;29;20210;-72
2022/11/30 08:10:03;;;;;;;26.63;22.02;;;9.30;97.20;;;;;;1669128;29;20222;-72
2022/11/30 08:10:55;;;;;;;24.08;19.80;;;9.30;97.20;;;;;;1669172;29;20231;-72
2022/11/30 08:11:48;;;;;;;25.33;19.70;;;9.30;97.20;;;;;;1669351;29;20560;-72
2022/11/30 08:12:39;;;;;;;24.63;20.75;;;9.30;97.20;;;;;;1669175;29;20211;-72
2022/11/30 08:13:32;;;;;;;25.40;19.80;;;9.30;97.20;;;;;;1669318;29;20232;-72
2022/11/30 08:14:22;;;;;;;28.30;21.50;;;9.30;97.20;;;;;;1668977;29;20206;-72
2022/11/30 08:15:14;;;;;;;24.70;20.77;;;9.30;97.20;;;;;;1669102;29;20217;-71
2022/11/30 08:16:08;;;;;;;23.35;20.13;;;9.30;97.20;;;;;;1669112;29;20236;-72
2022/11/30 08:16:59;;;;;;;28.88;20.27;;;9.30;97.20;;;;;;1668969;29;20202;-72
2022/11/30 08:17:53;;;;;;;26.25;20.42;;;9.30;97.20;;;;;;1669291;29;20210;-72
2022/11/30 08:18:46;;;;;;;28.85;20.83;;;9.30;97.20;;;;;;1668681;29;20232;-72
2022/11/30 08:19:38;;;;;;;28.90;21.15;;;9.30;97.20;;;;;;1669145;29;20210;-72
2022/11/30 08:20:30;;;;;;;24.25;20.23;;;9.30;97.20;;;;;;1669114;29;20708;-72
2022/11/30 08:21:22;;;;;;;28.35;20.10;;;9.40;97.20;;;;;;1669124;29;20211;-72
2022/11/30 08:22:13;;;;;;;23.13;19.90;;;9.40;97.20;;;;;;1669250;29;20712;-72
2022/11/30 08:23:04;;;;;;;23.67;19.07;;;9.40;97.20;;;;;;1669300;29;20571;-72
2022/11/30 08:23:56;;;;;;;26.13;20.00;;;9.40;97.20;;;;;;1669186;29;20584;-72
2022/11/30 08:24:47;;;;;;;28.15;20.38;;;9.40;97.20;;;;;;1669099;29;20249;-72
2022/11/30 08:25:38;;;;;;;23.80;19.77;;;9.40;97.20;;;;;;1669203;29;20701;-72
2022/11/30 08:26:31;;;;;;;24.70;20.70;;;9.40;97.20;;;;;;1669408;29;20865;-72
2022/11/30 08:27:22;;;;;;;25.13;20.27;;;9.40;97.20;;;;;;1668599;29;20214;-72
2022/11/30 08:28:14;;;;;;;22.77;19.13;;;9.40;97.20;;;;;;1669244;29;20219;-72
2022/11/30 08:29:05;;;;;;;23.58;20.60;;;9.40;97.20;;;;;;1668700;29;20206;-72
2022/11/30 08:29:56;;;;;;;22.73;19.03;;;9.40;97.20;;;;;;1669040;29;20226;-72
2022/11/30 08:30:47;;;;;;;23.65;20.17;;;9.40;97.20;;;;;;1668974;29;20234;-72
2022/11/30 08:31:39;;;;;;;24.57;19.13;;;9.40;97.20;;;;;;1669146;29;20217;-72
2022/11/30 08:32:30;;;;;;;23.80;19.50;;;9.50;97.20;;;;;;1669125;29;20210;-72
2022/11/30 08:33:22;;;;;;;25.10;20.53;;;9.50;97.20;;;;;;1669058;29;20213;-72
2022/11/30 08:34:13;;;;;;;24.00;20.33;;;9.50;97.20;;;;;;1669125;29;20452;-72
2022/11/30 08:35:05;;;;;;;24.92;19.90;;;9.50;97.20;;;;;;1669040;29;20214;-72
2022/11/30 08:36:06;;;;;;;23.35;19.98;;;9.50;97.20;;;;;;1668966;29;20230;-72
2022/11/30 08:36:58;;;;;;;23.00;19.40;;;9.50;97.20;;;;;;1668972;29;20925;-72
2022/11/30 08:37:49;;;;;;;24.65;21.10;;;9.50;97.20;;;;;;1669128;29;20211;-72
2022/11/30 08:38:42;;;;;;;23.57;19.80;;;9.50;97.20;;;;;;1668536;29;20209;-72
2022/11/30 08:39:33;;;;;;;24.23;20.77;;;9.50;97.20;;;;;;1669100;29;20712;-72
2022/11/30 08:40:25;;;;;;;25.85;20.55;;;9.50;97.20;;;;;;1668815;29;20582;-72
2022/11/30 08:41:17;;;;;;;23.23;20.30;;;9.50;97.20;;;;;;1669034;29;20203;-72
2022/11/30 08:42:09;;;;;;;23.92;21.02;;;9.50;97.20;;;;;;1669066;29;20234;-72
2022/11/30 08:43:00;;;;;;;24.45;19.73;;;9.50;97.20;;;;;;1669005;29;20594;-72
2022/11/30 08:43:52;;;;;;;22.67;18.97;;;9.50;97.20;;;;;;1669008;29;20583;-72
2022/11/30 08:44:44;;;;;;;22.42;19.77;;;9.50;97.20;;;;;;1669041;29;20724;-72
2022/11/30 08:45:35;;;;;;;23.38;19.80;;;9.50;97.20;;;;;;1669022;29;20215;-72
2022/11/30 08:46:27;;;;;;;21.80;19.40;;;9.50;97.20;;;;;;1668673;29;20210;-72
2022/11/30 08:47:18;;;;;;;22.23;19.30;;;9.50;97.20;;;;;;1668680;29;20207;-72
2022/11/30 08:48:09;;;;;;;23.73;19.48;;;9.60;97.20;;;;;;1669096;29;20213;-72
2022/11/30 08:49:01;;;;;;;25.27;20.77;;;9.60;97.20;;;;;;1668421;29;20213;-72
2022/11/30 08:49:53;;;;;;;23.40;20.33;;;9.60;97.20;;;;;;1669006;29;20462;-72
2022/11/30 08:50:43;;;;;;;24.50;20.75;;;9.60;97.20;;;;;;1668840;29;20241;-72
2022/11/30 08:51:36;;;;;;;26.47;21.13;;;9.60;97.20;;;;;;1668981;29;20618;-72
2022/11/30 08:52:27;;;;;;;21.70;19.08;;;9.60;97.20;;;;;;1669005;29;20210;-72
2022/11/30 08:53:19;;;;;;;23.43;20.43;;;9.60;97.20;;;;;;1668976;29;20203;-72
2022/11/30 08:54:10;;;;;;;25.38;20.90;;;9.50;97.20;;;;;;1669039;29;20210;-72
2022/11/30 08:55:01;;;;;;;25.20;22.50;;;9.50;97.20;;;;;;1668941;29;20293;-72
2022/11/30 08:55:56;;;;;;;25.02;21.30;;;9.50;97.20;;;;;;1668959;29;20728;-72
2022/11/30 08:56:47;;;;;;;23.17;18.90;;;9.50;97.20;;;;;;1668732;29;20207;-72
2022/11/30 08:57:39;;;;;;;23.52;19.70;;;9.50;97.20;;;;;;1668837;29;20217;-72
2022/11/30 08:58:33;;;;;;;22.48;19.08;;;9.40;97.20;;;;;;1668534;29;20206;-72
2022/11/30 08:59:25;;;;;;;21.13;18.65;;;9.40;97.20;;;;;;1668883;29;20267;-72
2022/11/30 09:00:18;;;;;;;19.90;17.80;;;9.40;97.20;;;;;;1668743;29;20226;-72
2022/11/30 09:01:11;;;;;;;20.98;18.38;;;9.40;97.20;;;;;;1668841;29;20619;-72
2022/11/30 09:02:02;;;;;;;21.02;18.00;;;9.40;97.20;;;;;;1668702;29;20776;-73
2022/11/30 09:02:54;;;;;;;20.30;17.33;;;9.40;97.20;;;;;;1668728;29;20624;-72
2022/11/30 09:03:48;;;;;;;21.25;18.40;;;9.40;97.20;;;;;;1668877;29;20471;-72
2022/11/30 09:04:40;;;;;;;24.08;19.88;;;9.40;97.20;;;;;;1668912;29;20210;-72
2022/11/30 09:05:31;;;;;;;22.35;19.13;;;9.40;97.20;;;;;;1668865;29;20214;-72
2022/11/30 09:06:25;;;;;;;21.00;18.43;;;9.40;97.20;;;;;;1668869;29;20199;-72
2022/11/30 09:07:17;;;;;;;20.88;18.58;;;9.40;97.20;;;;;;1668676;29;20210;-72
2022/11/30 09:08:09;;;;;;;22.10;18.77;;;9.40;97.20;;;;;;1668944;29;20206;-72
2022/11/30 09:09:01;;;;;;;19.75;17.33;;;9.50;97.20;;;;;;1668329;29;20586;-72
2022/11/30 09:09:52;;;;;;;21.23;19.02;;;9.50;97.20;;;;;;1668880;29;20582;-72
2022/11/30 09:10:43;;;;;;;21.20;18.95;;;9.50;97.20;;;;;;1668880;29;20235;-72
2022/11/30 09:11:35;;;;;;;20.33;17.47;;;9.50;97.20;;;;;;1668903;29;20218;-72
2022/11/30 09:12:26;;;;;;;22.27;18.75;;;9.60;97.20;;;;;;1668816;29;20583;-71
2022/11/30 09:13:18;;;;;;;19.17;16.92;;;9.60;97.20;;;;;;1668868;29;20202;-72
2022/11/30 09:14:10;;;;;;;20.10;16.85;;;9.60;97.20;;;;;;1668950;29;20644;-72
2022/11/30 09:15:01;;;;;;;23.92;17.23;;;9.60;97.20;;;;;;1668823;29;20222;-72
2022/11/30 09:15:54;;;;;;;18.10;15.88;;;9.60;97.20;;;;;;1668845;29;20681;-72
2022/11/30 09:16:45;;;;;;;22.00;17.13;;;9.60;97.20;;;;;;1668689;29;20288;-72
2022/11/30 09:17:37;;;;;;;18.90;16.67;;;9.60;97.20;;;;;;1668751;29;20224;-72
2022/11/30 09:18:28;;;;;;;19.55;17.10;;;9.60;97.20;;;;;;1668362;29;20585;-72
2022/11/30 09:19:20;;;;;;;19.17;16.27;;;9.50;97.20;;;;;;1668575;29;20486;-72
2022/11/30 09:20:12;;;;;;;20.23;16.92;;;9.50;97.20;;;;;;1668692;29;20669;-72
2022/11/30 09:21:05;;;;;;;19.13;15.82;;;9.50;97.20;;;;;;1668772;29;20693;-72
2022/11/30 09:21:56;;;;;;;18.90;16.90;;;9.50;97.20;;;;;;1668850;29;20559;-72
2022/11/30 09:22:48;;;;;;;19.70;16.67;;;9.50;97.20;;;;;;1668867;29;20696;-72
2022/11/30 09:23:41;;;;;;;19.33;17.20;;;9.50;97.20;;;;;;1668774;29;20575;-72
2022/11/30 09:24:33;;;;;;;19.15;17.15;;;9.50;97.20;;;;;;1668802;29;20243;-72
2022/11/30 09:25:24;;;;;;;18.13;16.23;;;9.50;97.20;;;;;;1668714;29;20819;-72
2022/11/30 09:26:19;;;;;;;19.02;16.30;;;9.60;97.20;;;;;;1668776;29;20214;-72
2022/11/30 09:27:11;;;;;;;19.38;17.33;;;9.60;97.20;;;;;;1668616;29;20194;-72
2022/11/30 09:28:02;;;;;;;19.05;16.40;;;9.60;97.20;;;;;;1668684;29;20210;-72
2022/11/30 09:28:54;;;;;;;19.50;17.40;;;9.60;97.20;;;;;;1668278;29;20207;-72
2022/11/30 09:29:45;;;;;;;17.55;15.85;;;9.60;97.20;;;;;;1668667;29;20217;-72
2022/11/30 09:30:36;;;;;;;19.17;16.20;;;9.60;97.20;;;;;;1668530;29;20229;-72
2022/11/30 09:31:27;;;;;;;22.13;16.98;;;9.70;97.20;;;;;;1668759;29;20206;-72
2022/11/30 09:32:19;;;;;;;18.67;16.47;;;9.70;97.20;;;;;;1668702;29;20683;-72
2022/11/30 09:33:10;;;;;;;18.85;16.25;;;9.70;97.20;;;;;;1668812;29;20207;-72
2022/11/30 09:34:01;;;;;;;19.03;16.87;;;9.70;97.20;;;;;;1668677;29;20207;-72
2022/11/30 09:34:52;;;;;;;18.35;16.35;;;9.70;97.20;;;;;;1668799;29;20210;-72
2022/11/30 09:35:44;;;;;;;17.60;15.50;;;9.80;97.20;;;;;;1668218;29;20428;-72
2022/11/30 09:36:35;;;;;;;17.60;15.38;;;9.80;97.20;;;;;;1668651;29;20622;-72
2022/11/30 09:37:27;;;;;;;18.70;16.70;;;9.80;97.20;;;;;;1667894;29;20203;-73
2022/11/30 09:38:19;;;;;;;18.08;15.30;;;9.80;97.20;;;;;;1668665;29;20214;-72
2022/11/30 09:39:11;;;;;;;18.77;15.80;;;9.90;97.20;;;;;;1667459;29;20210;-72
2022/11/30 09:40:03;;;;;;;23.33;18.40;;;9.90;97.20;;;;;;1668590;29;20209;-72
2022/11/30 09:40:55;;;;;;;23.25;17.65;;;9.90;97.20;;;;;;1668692;29;20234;-72
2022/11/30 09:42:16;;;;;;;28.00;16.50;;;9.90;97.20;;;;;;1668615;29;20672;-72
2022/11/30 09:43:18;;;;;;;18.27;15.50;;;9.90;97.20;;;;;;1668684;29;20561;-72
2022/11/30 09:44:17;;;;;;;19.42;17.08;;;9.90;97.20;;;;;;1668662;29;20215;-72
2022/11/30 09:45:14;;;;;;;17.80;16.00;;;9.90;97.20;;;;;;1668625;29;20673;-72
2022/11/30 09:46:07;;;;;;;20.73;16.40;;;10.00;97.20;;;;;;1668654;29;20210;-72
2022/11/30 09:47:05;;;;;;;18.63;16.05;;;10.00;97.20;;;;;;1668453;29;20673;-72
2022/11/30 09:48:09;;;;;;;18.17;16.20;;;10.00;97.20;;;;;;1668692;29;20210;-72
2022/11/30 09:49:03;;;;;;;17.35;15.55;;;10.00;97.20;;;;;;1668113;29;20214;-72
2022/11/30 09:49:54;;;;;;;19.67;15.95;;;10.00;97.20;;;;;;1668535;29;20219;-72
2022/11/30 09:50:47;;;;;;;19.50;17.05;;;10.00;97.20;;;;;;1668589;29;20256;-72
2022/11/30 09:51:43;;;;;;;20.20;16.75;;;10.00;97.20;;;;;;1668251;29;20213;-72
2022/11/30 09:52:37;;;;;;;20.85;17.35;;;10.00;97.20;;;;;;1668677;29;20648;-72
2022/11/30 09:53:39;;;;;;;19.15;16.42;;;10.00;97.20;;;;;;1668629;29;20207;-72
2022/11/30 09:54:36;;;;;;;22.08;18.10;;;10.00;97.20;;;;;;1668689;29;20696;-72
2022/11/30 09:55:31;;;;;;;23.15;17.90;;;10.00;97.20;;;;;;1668645;29;20666;-72
2022/11/30 09:56:27;;;;;;;25.20;18.67;;;10.00;97.20;;;;;;1668502;29;20191;-72
2022/11/30 09:57:24;;;;;;;23.50;17.80;;;10.00;97.20;;;;;;1668376;29;20210;-72
2022/11/30 09:58:29;;;;;;;25.55;17.92;;;10.00;97.20;;;;;;1668597;29;20211;-72
2022/11/30 09:59:24;;;;;;;23.13;18.15;;;10.00;97.20;;;;;;1668550;29;20685;-72
2022/11/30 10:00:20;;;;;;;25.17;18.65;;;10.00;97.20;;;;;;1668460;29;20703;-72
2022/11/30 10:01:17;;;;;;;22.70;18.63;;;9.90;97.20;;;;;;1668670;29;20211;-72
2022/11/30 10:02:16;;;;;;;24.75;19.85;;;9.90;97.20;;;;;;1668629;29;20218;-72
2022/11/30 10:03:08;;;;;;;24.83;19.70;;;9.90;97.20;;;;;;1668526;29;20218;-72
2022/11/30 10:04:00;;;;;;;24.33;19.10;;;9.90;97.20;;;;;;1668578;29;20219;-72
2022/11/30 10:04:52;;;;;;;22.23;18.23;;;9.90;97.20;;;;;;1668558;29;20294;-72
2022/11/30 10:05:46;;;;;;;23.83;18.85;;;9.90;97.20;;;;;;1668459;29;20219;-72
2022/11/30 10:06:46;;;;;;;19.77;17.50;;;9.90;97.20;;;;;;1668345;29;20665;-72
2022/11/30 10:07:52;;;;;;;22.60;18.95;;;9.90;97.20;;;;;;1668411;29;20425;-72
2022/11/30 10:08:51;;;;;;;23.15;18.60;;;9.90;97.20;;;;;;1668101;29;20198;-72
2022/11/30 10:09:51;;;;;;;21.15;18.77;;;9.90;97.20;;;;;;1668568;29;20199;-73
2022/11/30 10:10:50;;;;;;;22.42;19.42;;;9.90;97.20;;;;;;1668378;29;20234;-72
2022/11/30 10:11:50;;;;;;;23.10;18.38;;;9.90;97.20;;;;;;1668499;29;20217;-72
2022/11/30 10:12:47;;;;;;;23.90;19.88;;;9.90;97.20;;;;;;1668600;29;20579;-72
2022/11/30 10:13:53;;;;;;;23.95;20.20;;;9.90;97.20;;;;;;1668552;29;20217;-71
2022/11/30 10:15:14;;;;;;;22.98;19.73;;;9.90;97.20;;;;;;1668563;29;20207;-72
2022/11/30 10:16:15;;;;;;;25.05;21.15;;;9.90;97.20;;;;;;1668464;29;20218;-72
2022/11/30 10:17:18;;;;;;;22.55;20.15;;;10.00;97.20;;;;;;1668190;29;20348;-72
2022/11/30 10:18:19;;;;;;;21.75;19.45;;;10.00;97.20;;;;;;1668626;29;20192;-72
2022/11/30 10:19:20;;;;;;;22.55;18.67;;;10.00;97.20;;;;;;1667650;29;20560;-72
2022/11/30 10:20:25;;;;;;;21.80;18.77;;;10.10;97.20;;;;;;1668319;29;20214;-72
2022/11/30 10:21:32;;;;;;;21.13;18.83;;;10.10;97.20;;;;;;1668590;29;20622;-71
2022/11/30 10:22:30;;;;;;;20.17;17.40;;;10.10;97.20;;;;;;1668516;29;20221;-72
2022/11/30 10:23:52;;;;;;;21.20;18.10;;;10.10;97.20;;;;;;1668446;29;20222;-72
2022/11/30 10:25:03;;;;;;;22.40;18.92;;;10.20;97.20;;;;;;1668432;29;20226;-72
2022/11/30 10:25:56;;;;;;;21.35;18.05;;;10.20;97.20;;;;;;1668485;29;20221;-72
2022/11/30 10:26:54;;;;;;;21.67;18.73;;;10.20;97.20;;;;;;1668332;29;20745;-72
2022/11/30 10:27:50;;;;;;;22.52;18.27;;;10.20;97.20;;;;;;1668446;29;20266;-72
2022/11/30 10:28:49;;;;;;;23.13;18.30;;;10.20;97.20;;;;;;1667920;29;20211;-72
2022/11/30 10:29:41;;;;;;;25.50;18.15;;;10.30;97.20;;;;;;1668321;29;20274;-72
2022/11/30 10:30:36;;;;;;;22.25;19.58;;;10.30;97.20;;;;;;1668256;29;20226;-72
2022/11/30 10:31:29;;;;;;;21.23;17.88;;;10.30;97.20;;;;;;1668457;29;20259;-72
2022/11/30 10:32:22;;;;;;;20.23;17.70;;;10.30;97.20;;;;;;1668124;29;20212;-72
2022/11/30 10:33:17;;;;;;;19.30;16.58;;;10.30;97.20;;;;;;1668520;29;20244;-72
2022/11/30 10:34:18;;;;;;;22.52;18.33;;;10.30;97.20;;;;;;1668387;29;20202;-72
2022/11/30 10:35:23;;;;;;;27.92;18.40;;;10.30;97.20;;;;;;1668405;29;20302;-72
2022/11/30 10:36:24;;;;;;;23.45;18.40;;;10.20;97.20;;;;;;1668578;29;20195;-74